Pagrindinis puslapis
METAR-TAF:

METAR-TAF

Oro uostai :

Palangos oro uostas

Palanga, Lietuva

platuma: 55-55-12N, ilguma: 021-03E, Aukštis: 10 m

Dabartinis oras

Ataskaita buvo paskelbta 33 minutes, ne 06:20 UTC
Vėjas 8 kt iš Pietryčių
Temperatūra -7°C
Drėgmė 93%
Slėgis 1013 hPa
Matomumas: 4400 m
Su prošvaistėmis ne aukštis 1500 ft
rūkana

METAR: EYPA 230620Z 14008KT 4400 BR BKN015 M07/M08 Q1013 R19/910295

Laikas: 08:53 (06:53 UTC)

Prognozė

Ataskaita buvo paskelbta 1 valandą ir 52 minutes, ne 05:01 UTC
Prognozė galioja nuo 23 metu 06 UTC su 24 metu 06 UTC
Vėjas 8 kt iš Pietų
Matomumas: 5000 m
Apsiniaukę ne aukštis 500 ft
rūkana
Laikinai
nuo 23 metu 06 UTC su 23 metu 10 UTC
Matomumas: 1500 m
Apsiniaukę ne aukštis 300 ft
Tapsmas
nuo 23 metu 10 UTC su 23 metu 11 UTC
Matomumas: 7000 m
Su prošvaistėmis ne aukštis 700 ft
Su prošvaistėmis ne aukštis 1200 ft

TAF: EYPA 230501Z 2306/2406 17008KT 5000 BR OVC005 TEMPO 2306/2310 1500 OVC003 BECMG 2310/2311 7000 BKN007 BKN012

Orai ataskaitas ir orų prognozės (METAR, TAF).

turimą stotys yra geltonos ir raudonos taškus žemėlapyje.

Perkelti pele per norėdami pamatyti stoties vardą.

Tada spustelėkite, norėdami matyti oro stebėjimo ir prognozės.

Norėdami pakeisti žemėlapį: spustelėkite ant žalios mygtukų su juodo kryžiaus žemyn,; žalią mygtuką su brūkšneliu, jei norite nutolinti; arba žalių rodyklių gretimoms žemėlapius.


METAR-TAF: